createdAt,value
2023-01-21T00:00:53.201Z,5.45
2023-01-21T00:03:22.631Z,5.38
2023-01-21T00:08:16.391Z,3.58
2023-01-21T00:10:43.181Z,3.00
2023-01-21T00:13:09.899Z,5.20
2023-01-21T00:15:37.056Z,5.07
2023-01-21T00:18:06.581Z,4.68
2023-01-21T00:23:04.125Z,5.50
2023-01-21T00:25:31.134Z,4.72
2023-01-21T00:28:00.058Z,3.97
2023-01-21T00:30:27.147Z,5.78
2023-01-21T00:32:53.808Z,4.60
2023-01-21T00:35:20.506Z,3.78
2023-01-21T00:37:47.138Z,5.25
2023-01-21T00:40:14.440Z,4.70
2023-01-21T00:42:41.323Z,3.70
2023-01-21T00:45:10.917Z,6.15
2023-01-21T00:47:38.787Z,4.47
2023-01-21T00:50:09.255Z,3.88
2023-01-21T00:52:36.226Z,5.35
2023-01-21T00:55:03.061Z,4.45
2023-01-21T00:57:33.017Z,5.35
2023-01-21T01:00:00.495Z,4.85
2023-01-21T01:02:27.206Z,4.63
2023-01-21T01:04:53.882Z,4.85
2023-01-21T01:07:20.498Z,5.38
2023-01-21T01:09:47.152Z,5.28
2023-01-21T01:12:13.960Z,4.97
2023-01-21T01:14:40.571Z,4.43
2023-01-21T01:17:07.223Z,4.38
2023-01-21T01:19:33.886Z,3.92
2023-01-21T01:22:00.734Z,4.47
2023-01-21T01:24:27.476Z,5.18
2023-01-21T01:26:54.131Z,3.85
2023-01-21T01:29:21.165Z,4.72
2023-01-21T01:31:47.913Z,4.53
2023-01-21T01:34:14.762Z,3.97
2023-01-21T01:36:41.704Z,4.03
2023-01-21T01:39:08.566Z,4.20
2023-01-21T01:41:35.515Z,4.82
2023-01-21T01:44:25.854Z,5.07
2023-01-21T01:46:56.901Z,4.28
2023-01-21T01:49:23.858Z,5.03
2023-01-21T01:51:56.226Z,6.07
2023-01-21T01:54:40.620Z,4.57
2023-01-21T01:57:12.100Z,4.65
2023-01-21T01:59:40.833Z,5.60
2023-01-21T02:02:12.150Z,5.20
2023-01-21T02:04:44.381Z,5.00
2023-01-21T02:07:11.783Z,4.88
2023-01-21T02:09:38.577Z,4.30
2023-01-21T02:12:06.491Z,5.53
2023-01-21T02:14:38.990Z,4.85
2023-01-21T02:17:19.202Z,5.05
2023-01-21T02:20:50.788Z,4.10
2023-01-21T02:23:36.918Z,4.82
2023-01-21T02:26:40.865Z,5.35
2023-01-21T02:29:26.661Z,4.00
2023-01-21T02:32:07.995Z,5.68
2023-01-21T02:35:01.818Z,6.03
2023-01-21T02:37:54.539Z,7.13
2023-01-21T02:40:30.343Z,5.45
2023-01-21T02:43:32.347Z,5.03
2023-01-21T02:46:35.683Z,5.28
2023-01-21T02:49:17.615Z,5.78
2023-01-21T02:51:50.478Z,5.53
2023-01-21T02:54:38.895Z,5.93
2023-01-21T02:57:37.859Z,5.43
2023-01-21T03:00:13.022Z,5.47
2023-01-21T03:02:58.108Z,5.22
2023-01-21T03:05:40.187Z,5.40
2023-01-21T03:08:39.538Z,5.95
2023-01-21T03:14:32.945Z,7.90
2023-01-21T03:17:33.007Z,5.30
2023-01-21T03:20:03.808Z,7.60
2023-01-21T03:22:35.596Z,11.05
2023-01-21T03:25:04.222Z,5.65
2023-01-21T03:27:33.052Z,9.33
2023-01-21T03:30:05.909Z,7.57
2023-01-21T03:32:35.947Z,7.90
2023-01-21T03:35:05.920Z,8.43
2023-01-21T03:37:58.439Z,10.40
2023-01-21T03:40:37.168Z,10.48
2023-01-21T03:43:04.298Z,12.05
2023-01-21T03:45:42.960Z,10.77
2023-01-21T03:48:39.226Z,12.17
2023-01-21T03:51:11.479Z,14.40
2023-01-21T03:53:38.300Z,16.20
2023-01-21T03:56:05.521Z,17.75
2023-01-21T03:58:32.411Z,17.42
2023-01-21T04:00:59.024Z,19.90
2023-01-21T04:03:25.608Z,21.85
2023-01-21T04:05:52.279Z,23.73
2023-01-21T04:08:18.869Z,20.52
2023-01-21T04:10:45.695Z,22.38
2023-01-21T04:13:12.515Z,23.70
2023-01-21T04:15:39.071Z,25.30
2023-01-21T04:18:05.741Z,26.20
2023-01-21T04:20:32.384Z,24.85
2023-01-21T04:22:59.054Z,26.00
2023-01-21T04:25:25.620Z,25.25
2023-01-21T04:27:52.409Z,25.23
2023-01-21T04:30:19.322Z,26.90
2023-01-21T04:32:46.614Z,25.27
2023-01-21T04:35:13.429Z,26.52
2023-01-21T04:37:40.200Z,25.55
2023-01-21T04:40:07.465Z,23.40
2023-01-21T04:42:34.212Z,25.25
2023-01-21T04:45:00.849Z,27.33
2023-01-21T04:47:27.456Z,26.15
2023-01-21T04:49:54.593Z,25.73
2023-01-21T04:52:21.304Z,24.75
2023-01-21T04:54:47.974Z,27.02
2023-01-21T04:57:14.682Z,26.73
2023-01-21T04:59:41.564Z,26.98
2023-01-21T05:02:08.525Z,26.02
2023-01-21T05:04:35.266Z,24.73
2023-01-21T05:07:01.889Z,27.05
2023-01-21T05:09:28.752Z,28.48
2023-01-21T05:11:55.375Z,26.10
2023-01-21T05:14:22.217Z,26.52
2023-01-21T05:16:49.073Z,24.75
2023-01-21T05:19:15.843Z,25.98
2023-01-21T05:21:42.520Z,23.25
2023-01-21T05:24:09.390Z,26.08
2023-01-21T05:26:36.196Z,23.73
2023-01-21T05:29:02.808Z,24.02
2023-01-21T05:31:29.740Z,24.10
2023-01-21T05:33:57.376Z,23.60
2023-01-21T05:36:24.081Z,24.38
2023-01-21T05:38:50.749Z,23.15
2023-01-21T05:41:17.363Z,23.50
2023-01-21T05:43:44.092Z,23.80
2023-01-21T05:46:11.040Z,22.05
2023-01-21T05:48:37.825Z,21.05
2023-01-21T05:51:05.337Z,21.48
2023-01-21T05:53:32.147Z,21.55
2023-01-21T05:55:59.036Z,22.15
2023-01-21T05:58:26.477Z,23.52
2023-01-21T06:00:53.799Z,18.85
2023-01-21T06:03:20.470Z,22.77
2023-01-21T06:05:49.497Z,21.58
2023-01-21T06:08:17.003Z,19.33
2023-01-21T06:10:43.779Z,20.77
2023-01-21T06:13:15.481Z,22.05
2023-01-21T06:15:42.867Z,21.58
2023-01-21T06:18:09.671Z,20.05
2023-01-21T06:20:36.626Z,17.95
2023-01-21T06:23:03.772Z,17.83
2023-01-21T06:25:31.004Z,19.48
2023-01-21T06:27:58.100Z,17.13
2023-01-21T06:30:25.701Z,17.90
2023-01-21T06:32:52.373Z,18.42
2023-01-21T06:35:19.477Z,20.17
2023-01-21T06:37:46.674Z,16.40
2023-01-21T06:40:14.609Z,19.50
2023-01-21T06:42:42.065Z,19.38
2023-01-21T06:45:09.248Z,19.40
2023-01-21T06:47:35.999Z,16.40
2023-01-21T06:50:02.872Z,16.00
2023-01-21T06:52:29.485Z,18.77
2023-01-21T06:54:56.099Z,17.55
2023-01-21T06:57:22.802Z,16.00
2023-01-21T06:59:49.688Z,17.98
2023-01-21T07:02:16.540Z,15.90
2023-01-21T07:04:45.068Z,14.43
2023-01-21T07:07:11.773Z,15.87
2023-01-21T07:09:38.479Z,14.65
2023-01-21T07:12:05.982Z,16.23
2023-01-21T07:14:32.780Z,15.38
2023-01-21T07:16:59.993Z,15.73
2023-01-21T07:19:27.072Z,15.27
2023-01-21T07:21:56.835Z,15.52
2023-01-21T07:24:23.577Z,14.30
2023-01-21T07:26:50.280Z,14.70
2023-01-21T07:29:16.899Z,15.63
2023-01-21T07:31:43.745Z,16.73
2023-01-21T07:34:10.509Z,17.30
2023-01-21T07:36:37.231Z,16.75
2023-01-21T07:39:03.860Z,16.25
2023-01-21T07:41:30.705Z,15.30
2023-01-21T07:43:57.276Z,14.27
2023-01-21T07:46:24.456Z,15.52
2023-01-21T07:48:51.878Z,15.25
2023-01-21T07:51:22.176Z,14.73
2023-01-21T07:53:49.034Z,16.77
2023-01-21T07:56:18.150Z,14.60
2023-01-21T07:58:47.021Z,14.32
2023-01-21T08:01:14.065Z,14.35
2023-01-21T08:03:41.651Z,16.38
2023-01-21T08:06:08.631Z,14.75
2023-01-21T08:08:35.712Z,16.50
2023-01-21T08:11:02.413Z,13.57
2023-01-21T08:13:29.055Z,17.48
2023-01-21T08:15:56.744Z,14.65
2023-01-21T08:18:26.283Z,14.60
2023-01-21T08:23:23.159Z,15.00
2023-01-21T08:25:49.990Z,16.50
2023-01-21T08:28:16.923Z,13.32
2023-01-21T08:30:43.898Z,15.05
2023-01-21T08:33:10.735Z,15.35
2023-01-21T08:35:37.417Z,16.60
2023-01-21T08:38:04.064Z,15.43
2023-01-21T08:40:30.984Z,15.20
2023-01-21T08:43:02.569Z,17.40
2023-01-21T08:45:29.695Z,16.58
2023-01-21T08:47:57.009Z,16.10
2023-01-21T08:50:24.060Z,16.83
2023-01-21T08:52:54.840Z,14.80
2023-01-21T08:55:22.397Z,15.70
2023-01-21T08:57:52.086Z,16.27
2023-01-21T09:00:20.343Z,15.40
2023-01-21T09:02:47.074Z,17.17
2023-01-21T09:05:13.843Z,15.73
2023-01-21T09:07:40.441Z,17.27
2023-01-21T09:10:07.807Z,19.58
2023-01-21T09:12:34.923Z,19.48
2023-01-21T09:15:01.646Z,16.23
2023-01-21T09:17:28.343Z,16.77
2023-01-21T09:19:57.870Z,20.13
2023-01-21T09:24:51.307Z,16.50
2023-01-21T09:27:18.155Z,15.85
2023-01-21T09:29:44.997Z,17.90
2023-01-21T09:32:11.713Z,16.05
2023-01-21T09:34:38.423Z,15.07
2023-01-21T09:37:05.359Z,17.02
2023-01-21T09:39:32.172Z,15.38
2023-01-21T09:41:58.984Z,16.73
2023-01-21T09:44:33.619Z,16.50
2023-01-21T09:47:09.044Z,16.17
2023-01-21T09:49:44.111Z,19.10
2023-01-21T09:52:40.466Z,20.90
2023-01-21T09:55:16.544Z,18.83
2023-01-21T09:58:07.144Z,19.73
2023-01-21T10:00:54.451Z,20.27
2023-01-21T10:03:34.117Z,21.13
2023-01-21T10:06:09.683Z,17.80
2023-01-21T10:08:36.252Z,18.02
2023-01-21T10:11:33.862Z,18.92
2023-01-21T10:14:22.349Z,21.95
2023-01-21T10:16:54.761Z,20.20
2023-01-21T10:19:33.259Z,22.88
2023-01-21T10:22:04.068Z,21.05
2023-01-21T10:24:32.915Z,19.75
2023-01-21T10:27:00.548Z,19.38
2023-01-21T10:29:28.513Z,21.65
2023-01-21T10:32:00.113Z,17.67
2023-01-21T10:34:31.268Z,18.60
2023-01-21T10:37:43.121Z,20.67
2023-01-21T10:40:43.998Z,20.45
2023-01-21T10:43:32.352Z,21.02
2023-01-21T10:46:22.753Z,18.95
2023-01-21T10:52:11.683Z,20.10
2023-01-21T10:55:08.587Z,16.85
2023-01-21T10:57:56.729Z,18.92
2023-01-21T11:06:13.629Z,21.73
2023-01-21T11:08:44.212Z,17.77
2023-01-21T11:11:15.332Z,18.90
2023-01-21T11:13:44.797Z,17.55
2023-01-21T11:16:11.733Z,20.67
2023-01-21T11:18:41.566Z,18.92
2023-01-21T11:21:25.307Z,18.45
2023-01-21T11:24:00.168Z,17.88
2023-01-21T11:26:30.195Z,18.90
2023-01-21T11:29:18.053Z,16.63
2023-01-21T11:31:51.694Z,17.73
2023-01-21T11:34:23.197Z,17.65
2023-01-21T11:37:07.995Z,19.80
2023-01-21T11:39:48.431Z,17.90
2023-01-21T11:42:17.459Z,19.08
2023-01-21T11:45:28.944Z,17.77
2023-01-21T11:47:56.646Z,18.33
2023-01-21T11:50:41.913Z,18.85
2023-01-21T11:53:11.363Z,19.98
2023-01-21T11:58:24.830Z,20.10
2023-01-21T12:00:54.894Z,19.00
2023-01-21T12:03:28.738Z,19.50
2023-01-21T12:05:55.770Z,19.33
2023-01-21T12:08:31.305Z,18.45
2023-01-21T12:11:04.011Z,17.90
2023-01-21T12:13:39.615Z,17.77
2023-01-21T12:16:18.255Z,18.00
2023-01-21T12:19:28.977Z,20.63
2023-01-21T12:22:20.145Z,16.13
2023-01-21T12:25:20.836Z,20.98
2023-01-21T12:28:17.359Z,18.77
2023-01-21T12:31:10.427Z,16.38
2023-01-21T12:33:52.150Z,17.88
2023-01-21T12:36:29.474Z,16.88
2023-01-21T12:39:14.014Z,15.70
2023-01-21T12:41:44.292Z,16.60
2023-01-21T12:44:38.501Z,13.98
2023-01-21T12:47:14.217Z,14.40
2023-01-21T12:49:49.820Z,15.35
2023-01-21T12:52:44.568Z,15.65
2023-01-21T12:55:22.181Z,15.88
2023-01-21T12:58:14.748Z,15.20
2023-01-21T13:00:46.323Z,15.77
2023-01-21T13:03:35.038Z,14.95
2023-01-21T13:06:52.249Z,15.33
2023-01-21T13:09:41.190Z,14.17
2023-01-21T13:12:34.224Z,14.20
2023-01-21T13:15:15.471Z,13.00
2023-01-21T13:17:45.421Z,13.48
2023-01-21T13:20:17.658Z,14.55
2023-01-21T13:22:51.837Z,14.65
2023-01-21T13:25:18.644Z,14.90
2023-01-21T13:28:01.641Z,14.73
2023-01-21T13:30:53.686Z,14.43
2023-01-21T13:33:37.574Z,14.07
2023-01-21T13:36:23.151Z,13.45
2023-01-21T13:39:04.919Z,12.75
2023-01-21T13:41:49.189Z,14.48
2023-01-21T13:44:58.158Z,11.52
2023-01-21T13:47:50.386Z,12.35
2023-01-21T13:50:55.914Z,13.38
2023-01-21T13:53:58.556Z,13.43
2023-01-21T13:56:51.935Z,10.55
2023-01-21T13:59:24.902Z,12.05
2023-01-21T14:02:00.303Z,12.77
2023-01-21T14:04:57.949Z,11.68
2023-01-21T14:07:39.856Z,11.82
2023-01-21T14:10:21.367Z,11.95
2023-01-21T14:13:03.120Z,10.98
2023-01-21T14:15:59.467Z,11.50
2023-01-21T14:18:47.162Z,12.63
2023-01-21T14:21:25.659Z,11.95
2023-01-21T14:24:18.145Z,11.55
2023-01-21T14:27:04.474Z,10.88
2023-01-21T14:29:47.051Z,10.73
2023-01-21T14:32:22.293Z,12.07
2023-01-21T14:35:18.561Z,10.10
2023-01-21T14:37:55.632Z,10.93
2023-01-21T14:40:31.603Z,10.77
2023-01-21T14:42:59.276Z,10.02
2023-01-21T14:45:51.460Z,10.63
2023-01-21T14:48:29.175Z,11.60
2023-01-21T14:51:11.942Z,10.45
2023-01-21T14:53:50.703Z,11.05
2023-01-21T14:56:32.869Z,10.30
2023-01-21T14:59:25.483Z,11.82
2023-01-21T15:02:01.558Z,9.85
2023-01-21T15:04:34.355Z,10.75
2023-01-21T15:07:09.611Z,10.35
2023-01-21T15:09:44.222Z,9.13
2023-01-21T15:12:19.938Z,9.55
2023-01-21T15:14:47.353Z,10.45
2023-01-21T15:17:51.344Z,10.18
2023-01-21T15:20:42.828Z,10.98
2023-01-21T15:23:27.803Z,9.35
2023-01-21T15:26:11.116Z,11.48
2023-01-21T15:28:46.292Z,11.75
2023-01-21T15:31:40.831Z,11.07
2023-01-21T15:34:14.938Z,10.75
2023-01-21T15:36:53.006Z,9.02
2023-01-21T15:39:28.980Z,11.63
2023-01-21T15:42:02.607Z,9.65
2023-01-21T15:44:58.362Z,10.60
2023-01-21T15:47:53.430Z,10.20
2023-01-21T15:50:30.274Z,9.90
2023-01-21T15:53:34.074Z,10.07
2023-01-21T15:56:32.784Z,9.10
2023-01-21T15:59:22.505Z,10.60
2023-01-21T16:02:09.969Z,8.15
2023-01-21T16:05:09.028Z,10.63
2023-01-21T16:08:00.157Z,9.52
2023-01-21T16:10:51.527Z,9.38
2023-01-21T16:13:36.528Z,9.27
2023-01-21T16:16:17.287Z,9.60
2023-01-21T16:18:56.295Z,10.27
2023-01-21T16:21:34.906Z,10.60
2023-01-21T16:24:11.164Z,9.38
2023-01-21T16:26:37.935Z,9.82
2023-01-21T16:29:15.495Z,9.85
2023-01-21T16:31:59.448Z,10.20
2023-01-21T16:34:41.475Z,9.07
2023-01-21T16:37:15.772Z,10.20
2023-01-21T16:39:43.522Z,10.75
2023-01-21T16:42:45.735Z,9.27
2023-01-21T16:45:21.220Z,9.68
2023-01-21T16:47:56.957Z,9.98
2023-01-21T16:50:27.078Z,8.57
2023-01-21T16:52:55.150Z,8.23
2023-01-21T16:55:25.884Z,8.43
2023-01-21T16:57:55.658Z,9.80
2023-01-21T17:00:25.263Z,9.07
2023-01-21T17:05:19.654Z,8.88
2023-01-21T17:07:53.129Z,9.70
2023-01-21T17:10:39.999Z,8.82
2023-01-21T17:13:15.445Z,8.30
2023-01-21T17:15:48.840Z,8.52
2023-01-21T17:18:24.397Z,9.10
2023-01-21T17:21:00.706Z,9.18
2023-01-21T17:23:37.104Z,10.75
2023-01-21T17:26:29.593Z,8.88
2023-01-21T17:29:10.989Z,12.52
2023-01-21T17:31:41.350Z,8.45
2023-01-21T17:34:10.942Z,10.75
2023-01-21T17:39:07.598Z,9.43
2023-01-21T17:41:43.875Z,8.97
2023-01-21T17:44:24.230Z,10.27
2023-01-21T17:47:21.967Z,13.20
2023-01-21T17:49:55.002Z,8.32
2023-01-21T17:52:22.442Z,9.23
2023-01-21T17:54:50.016Z,11.32
2023-01-21T17:57:33.864Z,11.40
2023-01-21T18:00:01.139Z,10.65
2023-01-21T18:02:30.914Z,7.45
2023-01-21T18:04:57.531Z,10.18
2023-01-21T18:07:30.048Z,7.45
2023-01-21T18:10:04.898Z,9.27
2023-01-21T18:12:31.568Z,8.95
2023-01-21T18:14:58.753Z,10.93
2023-01-21T18:17:25.664Z,9.07
2023-01-21T18:19:52.421Z,8.38
2023-01-21T18:22:32.017Z,8.82
2023-01-21T18:27:27.023Z,9.77
2023-01-21T18:29:54.066Z,8.00
2023-01-21T18:32:20.836Z,7.38
2023-01-21T18:34:47.530Z,9.20
2023-01-21T18:37:21.670Z,7.55
2023-01-21T18:39:48.536Z,8.30
2023-01-21T18:42:17.947Z,9.07
2023-01-21T18:47:16.914Z,7.60
2023-01-21T18:49:44.591Z,9.00
2023-01-21T18:52:14.945Z,7.45
2023-01-21T18:54:41.876Z,8.90
2023-01-21T18:57:18.238Z,6.90
2023-01-21T18:59:44.967Z,7.63
2023-01-21T19:02:17.910Z,7.78
2023-01-21T19:04:46.565Z,6.93
2023-01-21T19:07:21.196Z,8.70
2023-01-21T19:09:50.587Z,7.75
2023-01-21T19:12:21.014Z,7.68
2023-01-21T19:14:48.866Z,7.13
2023-01-21T19:17:26.954Z,6.85
2023-01-21T19:19:54.469Z,6.57
2023-01-21T19:22:21.478Z,6.65
2023-01-21T19:24:49.093Z,6.70
2023-01-21T19:27:30.409Z,6.30
2023-01-21T19:29:57.086Z,7.70
2023-01-21T19:32:24.017Z,6.60
2023-01-21T19:34:50.662Z,5.95
2023-01-21T19:37:20.988Z,6.63
2023-01-21T19:39:48.088Z,6.15
2023-01-21T19:42:16.381Z,7.60
2023-01-21T19:44:43.228Z,6.95
2023-01-21T19:47:18.568Z,6.75
2023-01-21T19:49:46.223Z,6.32
2023-01-21T19:52:14.375Z,5.72
2023-01-21T19:54:40.988Z,6.13
2023-01-21T19:57:14.411Z,5.95
2023-01-21T19:59:45.314Z,6.70
2023-01-21T20:02:12.325Z,6.00
2023-01-21T20:04:39.447Z,6.43
2023-01-21T20:07:07.201Z,6.75
2023-01-21T20:09:33.908Z,5.43
2023-01-21T20:12:03.323Z,5.32
2023-01-21T20:14:31.029Z,6.53
2023-01-21T20:16:57.793Z,6.53
2023-01-21T20:19:24.688Z,5.97
2023-01-21T20:22:01.289Z,6.28
2023-01-21T20:24:30.281Z,6.78
2023-01-21T20:26:58.320Z,5.57
2023-01-21T20:29:27.067Z,6.70
2023-01-21T20:31:54.505Z,7.07
2023-01-21T20:34:21.511Z,6.47
2023-01-21T20:36:50.834Z,8.68
2023-01-21T20:41:44.068Z,6.97
2023-01-21T20:44:10.760Z,6.60
2023-01-21T20:46:38.602Z,6.65
2023-01-21T20:49:05.721Z,7.15
2023-01-21T20:51:32.589Z,6.60
2023-01-21T20:53:59.415Z,8.60
2023-01-21T20:56:31.904Z,7.90
2023-01-21T20:58:59.154Z,7.28
2023-01-21T21:01:27.644Z,9.18
2023-01-21T21:03:54.437Z,8.17
2023-01-21T21:06:23.551Z,7.45
2023-01-21T21:08:50.665Z,7.13
2023-01-21T21:11:18.574Z,9.05
2023-01-21T21:13:48.232Z,5.88
2023-01-21T21:16:22.778Z,8.65
2023-01-21T21:18:50.102Z,7.18
2023-01-21T21:21:18.062Z,8.20
2023-01-21T21:23:46.648Z,6.63
2023-01-21T21:26:29.243Z,6.83
2023-01-21T21:28:57.701Z,6.88
2023-01-21T21:31:26.355Z,7.07
2023-01-21T21:33:53.178Z,8.47
2023-01-21T21:36:22.559Z,6.85
2023-01-21T21:38:50.051Z,8.93
2023-01-21T21:41:37.714Z,7.15
2023-01-21T21:44:05.742Z,7.40
2023-01-21T21:46:51.041Z,7.75
2023-01-21T21:49:17.688Z,7.13
2023-01-21T21:51:45.850Z,7.97
2023-01-21T21:54:13.963Z,7.22
2023-01-21T21:56:40.787Z,7.30
2023-01-21T21:59:07.497Z,7.93
2023-01-21T22:01:36.014Z,9.55
2023-01-21T22:04:04.289Z,6.47
2023-01-21T22:06:32.146Z,8.43
2023-01-21T22:08:59.026Z,7.18
2023-01-21T22:11:27.299Z,6.35
2023-01-21T22:13:55.380Z,9.52
2023-01-21T22:16:27.411Z,8.98
2023-01-21T22:18:56.246Z,7.95
2023-01-21T22:21:25.625Z,7.28
2023-01-21T22:23:52.801Z,6.95
2023-01-21T22:26:22.604Z,8.00
2023-01-21T22:28:51.323Z,6.57
2023-01-21T22:31:30.517Z,6.80
2023-01-21T22:36:26.947Z,6.35
2023-01-21T22:38:54.053Z,7.07
2023-01-21T22:41:22.542Z,6.90
2023-01-21T22:43:50.144Z,6.60
2023-01-21T22:46:23.350Z,7.68
2023-01-21T22:48:50.480Z,8.65
2023-01-21T22:51:19.149Z,6.57
2023-01-21T22:53:45.958Z,10.43
2023-01-21T22:56:14.880Z,6.97
2023-01-21T22:58:45.186Z,7.40
2023-01-21T23:01:26.808Z,7.63
2023-01-21T23:03:54.209Z,9.43
2023-01-21T23:06:20.913Z,7.82
2023-01-21T23:08:47.945Z,8.07
2023-01-21T23:11:15.802Z,8.40
2023-01-21T23:13:42.495Z,7.35
2023-01-21T23:16:13.610Z,6.65
2023-01-21T23:18:42.083Z,13.68
2023-01-21T23:21:11.672Z,7.45
2023-01-21T23:23:38.806Z,7.45
2023-01-21T23:26:08.083Z,7.13
2023-01-21T23:28:36.067Z,6.80
2023-01-21T23:31:07.269Z,8.40
2023-01-21T23:33:34.436Z,8.85
2023-01-21T23:36:01.505Z,7.80
2023-01-21T23:38:29.088Z,6.95
2023-01-21T23:40:57.060Z,9.63
2023-01-21T23:43:26.080Z,9.23
2023-01-21T23:45:54.070Z,8.73
2023-01-21T23:48:21.508Z,8.65
2023-01-21T23:50:48.667Z,7.85
2023-01-21T23:53:27.293Z,8.40
2023-01-21T23:55:54.075Z,8.30
2023-01-21T23:58:20.947Z,7.75
